Time;durP1;ratioP1;P1;durP2;ratioP2;P2;SDS_P1;SDS_P2;PMS_P1;PMS_P2;Temp;Humidity;BMP_temperature;BMP_pressure;BME280_temperature;BME280_humidity;BME280_pressure;Samples;Min_cycle;Max_cycle;Signal;HPM_P1;HPM_P2
2023/08/08 00:01:35;;;;;;;7.20;3.50;;;;;;;;;;5110600;28;20039;-63
2023/08/08 00:04:01;;;;;;;7.40;3.20;;;;;;;;;;5110942;28;20047;-63
2023/08/08 00:06:27;;;;;;;6.00;3.38;;;;;;;;;;5111261;28;20039;-63
2023/08/08 00:08:53;;;;;;;8.13;3.63;;;;;;;;;;5118906;27;20036;-63
2023/08/08 00:11:20;;;;;;;6.93;3.53;;;;;;;;;;5114804;28;20115;-63
2023/08/08 00:13:46;;;;;;;6.78;3.30;;;;;;;;;;5114183;28;20051;-63
2023/08/08 00:16:12;;;;;;;8.18;4.07;;;;;;;;;;5114117;28;20043;-63
2023/08/08 00:18:38;;;;;;;7.05;3.58;;;;;;;;;;5114583;28;20423;-63
2023/08/08 00:21:04;;;;;;;6.75;4.57;;;;;;;;;;5114437;28;20498;-63
2023/08/08 00:23:30;;;;;;;6.40;3.65;;;;;;;;;;5113953;28;20106;-63
2023/08/08 00:25:56;;;;;;;8.23;3.90;;;;;;;;;;5114352;28;20084;-63
2023/08/08 00:28:22;;;;;;;6.65;3.50;;;;;;;;;;5114241;28;20043;-63
2023/08/08 00:30:48;;;;;;;5.68;3.55;;;;;;;;;;5113829;28;20623;-63
2023/08/08 00:33:15;;;;;;;8.93;4.18;;;;;;;;;;5114355;28;20425;-63
2023/08/08 00:35:41;;;;;;;5.18;4.00;;;;;;;;;;5114210;28;20489;-63
2023/08/08 00:38:07;;;;;;;10.80;3.58;;;;;;;;;;5113786;28;20069;-63
2023/08/08 00:40:33;;;;;;;7.15;4.18;;;;;;;;;;5114050;28;20040;-63
2023/08/08 00:42:59;;;;;;;6.80;3.92;;;;;;;;;;5114115;28;20526;-63
2023/08/08 00:45:25;;;;;;;5.22;3.63;;;;;;;;;;5112396;28;20096;-63
2023/08/08 00:47:51;;;;;;;7.35;4.22;;;;;;;;;;5113980;28;20051;-63
2023/08/08 00:50:18;;;;;;;7.30;4.47;;;;;;;;;;5114023;28;20039;-63
2023/08/08 00:52:44;;;;;;;7.68;4.20;;;;;;;;;;5113408;28;20050;-63
2023/08/08 00:55:10;;;;;;;7.63;3.97;;;;;;;;;;5113899;28;20047;-63
2023/08/08 00:57:38;;;;;;;7.90;4.10;;;;;;;;;;5113887;28;20139;-63
2023/08/08 01:00:06;;;;;;;8.20;4.40;;;;;;;;;;5113382;28;20055;-63
2023/08/08 01:02:32;;;;;;;6.07;4.60;;;;;;;;;;5113591;28;20043;-63
2023/08/08 01:04:58;;;;;;;8.75;4.32;;;;;;;;;;5113810;28;20036;-63
2023/08/08 01:07:28;;;;;;;10.02;4.28;;;;;;;;;;5113125;28;20085;-63
2023/08/08 01:10:14;;;;;;;6.97;4.20;;;;;;;;;;5112299;28;20067;-63
2023/08/08 01:12:42;;;;;;;10.90;4.03;;;;;;;;;;5112820;28;20051;-63
2023/08/08 01:15:09;;;;;;;5.97;4.43;;;;;;;;;;5112859;28;20054;-63
2023/08/08 01:17:36;;;;;;;6.18;4.18;;;;;;;;;;5112909;28;20085;-63
2023/08/08 01:20:05;;;;;;;5.72;4.05;;;;;;;;;;5113464;28;20061;-63
2023/08/08 01:22:36;;;;;;;6.80;3.88;;;;;;;;;;5112796;28;20035;-63
2023/08/08 01:25:02;;;;;;;7.72;4.25;;;;;;;;;;5113257;28;20385;-63
2023/08/08 01:27:29;;;;;;;6.45;4.22;;;;;;;;;;5113176;28;20040;-63
2023/08/08 01:29:55;;;;;;;7.43;4.10;;;;;;;;;;5112633;28;20092;-63
2023/08/08 01:32:21;;;;;;;9.18;4.00;;;;;;;;;;5113029;28;20040;-63
2023/08/08 01:34:47;;;;;;;6.20;4.40;;;;;;;;;;5113076;28;20035;-63
2023/08/08 01:37:20;;;;;;;8.02;3.63;;;;;;;;;;5112708;28;20048;-63
2023/08/08 01:39:46;;;;;;;7.03;4.47;;;;;;;;;;5112896;28;20046;-63
2023/08/08 01:42:14;;;;;;;9.52;4.65;;;;;;;;;;5112851;28;20046;-63
2023/08/08 01:44:42;;;;;;;6.72;4.10;;;;;;;;;;5112462;28;20108;-63
2023/08/08 01:47:08;;;;;;;6.82;4.22;;;;;;;;;;5112406;28;20043;-63
2023/08/08 01:49:34;;;;;;;5.30;4.00;;;;;;;;;;5112810;28;20122;-63
2023/08/08 01:52:01;;;;;;;9.98;4.72;;;;;;;;;;5112281;28;20050;-63
2023/08/08 01:54:27;;;;;;;6.32;4.35;;;;;;;;;;5145330;27;20120;-63
2023/08/08 01:56:53;;;;;;;10.77;4.30;;;;;;;;;;5112635;28;20093;-63
2023/08/08 01:59:19;;;;;;;8.85;4.15;;;;;;;;;;5112113;28;20048;-63
2023/08/08 02:01:45;;;;;;;10.82;4.68;;;;;;;;;;5112525;28;20042;-63
2023/08/08 02:04:11;;;;;;;8.48;4.18;;;;;;;;;;5112325;28;20075;-63
2023/08/08 02:06:37;;;;;;;13.85;4.72;;;;;;;;;;5111901;28;20124;-63
2023/08/08 02:09:03;;;;;;;9.73;3.88;;;;;;;;;;5112217;28;20458;-63
2023/08/08 02:11:29;;;;;;;6.25;4.40;;;;;;;;;;5112237;28;20604;-63
2023/08/08 02:13:55;;;;;;;4.90;3.85;;;;;;;;;;5111392;28;20066;-63
2023/08/08 02:16:21;;;;;;;7.28;4.32;;;;;;;;;;5112349;28;20436;-63
2023/08/08 02:18:47;;;;;;;5.93;4.50;;;;;;;;;;5112244;28;20090;-63
2023/08/08 02:21:13;;;;;;;10.57;4.18;;;;;;;;;;5111760;28;20043;-63
2023/08/08 02:23:39;;;;;;;8.57;4.25;;;;;;;;;;5111926;28;20036;-63
2023/08/08 02:26:05;;;;;;;10.35;4.20;;;;;;;;;;5111894;28;20717;-63
2023/08/08 02:28:31;;;;;;;8.68;4.18;;;;;;;;;;5111099;28;20039;-63
2023/08/08 02:30:57;;;;;;;6.25;4.15;;;;;;;;;;5111576;28;20039;-63
2023/08/08 02:33:23;;;;;;;5.65;3.90;;;;;;;;;;5111834;28;20130;-63
2023/08/08 02:35:49;;;;;;;7.85;4.78;;;;;;;;;;5111231;28;20064;-63
2023/08/08 02:38:15;;;;;;;8.35;4.15;;;;;;;;;;5111920;28;20040;-63
2023/08/08 02:40:41;;;;;;;8.80;4.05;;;;;;;;;;5111808;28;20044;-63
2023/08/08 02:43:09;;;;;;;7.10;3.95;;;;;;;;;;5111421;28;20043;-63
2023/08/08 02:45:35;;;;;;;9.85;4.00;;;;;;;;;;5111927;28;20436;-63
2023/08/08 02:48:01;;;;;;;13.88;4.72;;;;;;;;;;5111438;28;20043;-63
2023/08/08 02:50:27;;;;;;;8.55;4.07;;;;;;;;;;5111395;28;20043;-63
2023/08/08 02:52:53;;;;;;;9.07;4.20;;;;;;;;;;5111500;28;20039;-63
2023/08/08 02:55:19;;;;;;;7.78;3.97;;;;;;;;;;5111427;28;20052;-63
2023/08/08 02:57:45;;;;;;;10.35;4.20;;;;;;;;;;5110814;28;20039;-63
2023/08/08 03:00:11;;;;;;;8.23;4.13;;;;;;;;;;5111602;28;20133;-63
2023/08/08 03:02:37;;;;;;;5.80;3.75;;;;;;;;;;5111539;28;20130;-63
2023/08/08 03:05:04;;;;;;;7.45;4.10;;;;;;;;;;5111482;28;20069;-63
2023/08/08 03:07:30;;;;;;;7.75;4.00;;;;;;;;;;5111110;28;20055;-63
2023/08/08 03:09:56;;;;;;;9.45;4.15;;;;;;;;;;5111343;28;20101;-63
2023/08/08 03:12:22;;;;;;;11.63;4.20;;;;;;;;;;5111115;28;20489;-63
2023/08/08 03:14:48;;;;;;;12.85;4.30;;;;;;;;;;5110869;28;20054;-63
2023/08/08 03:17:14;;;;;;;11.35;4.70;;;;;;;;;;5111399;28;20039;-63
2023/08/08 03:19:40;;;;;;;12.05;4.38;;;;;;;;;;5111200;28;20162;-63
2023/08/08 03:22:06;;;;;;;9.05;3.97;;;;;;;;;;5110897;28;20046;-63
2023/08/08 03:24:32;;;;;;;9.40;3.80;;;;;;;;;;5111126;28;20040;-63
2023/08/08 03:26:58;;;;;;;8.38;3.72;;;;;;;;;;5111228;28;20034;-63
2023/08/08 03:29:24;;;;;;;10.90;4.13;;;;;;;;;;5110865;28;20497;-63
2023/08/08 03:31:50;;;;;;;11.70;3.97;;;;;;;;;;5111058;28;20044;-63
2023/08/08 03:34:16;;;;;;;11.25;4.25;;;;;;;;;;5110985;28;20047;-63
2023/08/08 03:36:42;;;;;;;14.68;4.20;;;;;;;;;;5110752;28;20049;-63
2023/08/08 03:39:08;;;;;;;7.97;4.32;;;;;;;;;;5110985;28;20130;-63
2023/08/08 03:41:36;;;;;;;6.50;3.85;;;;;;;;;;5113341;28;20086;-63
2023/08/08 03:44:02;;;;;;;16.60;5.22;;;;;;;;;;5114708;28;20046;-63
2023/08/08 03:46:28;;;;;;;7.82;4.22;;;;;;;;;;5114987;28;20048;-63
2023/08/08 03:48:54;;;;;;;9.27;4.18;;;;;;;;;;5115173;28;20039;-63
2023/08/08 03:51:20;;;;;;;8.90;3.72;;;;;;;;;;5114812;28;20460;-63
2023/08/08 03:53:46;;;;;;;11.48;4.00;;;;;;;;;;5114906;28;20031;-63
2023/08/08 03:56:12;;;;;;;13.13;4.15;;;;;;;;;;5114902;28;20040;-63
2023/08/08 03:58:39;;;;;;;10.32;3.92;;;;;;;;;;5114657;28;20046;-63
2023/08/08 04:01:05;;;;;;;8.23;3.85;;;;;;;;;;5148294;27;20039;-63
2023/08/08 04:03:31;;;;;;;11.73;3.72;;;;;;;;;;5115157;28;20049;-63
2023/08/08 04:05:57;;;;;;;8.80;3.58;;;;;;;;;;5114916;28;20135;-63
2023/08/08 04:08:23;;;;;;;9.55;3.65;;;;;;;;;;5104665;28;20446;-63
2023/08/08 04:10:49;;;;;;;7.57;3.58;;;;;;;;;;5094800;28;20044;-63
2023/08/08 04:13:15;;;;;;;8.07;3.00;;;;;;;;;;5093905;28;20095;-63
2023/08/08 04:15:41;;;;;;;7.82;3.08;;;;;;;;;;5094729;28;20044;-63
2023/08/08 04:18:07;;;;;;;8.02;2.95;;;;;;;;;;5094499;28;20040;-63
2023/08/08 04:20:34;;;;;;;10.25;3.35;;;;;;;;;;5094177;28;20036;-63
2023/08/08 04:23:00;;;;;;;5.72;2.63;;;;;;;;;;5094439;28;20036;-63
2023/08/08 04:25:26;;;;;;;7.50;2.45;;;;;;;;;;5098689;28;20425;-63
2023/08/08 04:27:53;;;;;;;5.55;2.50;;;;;;;;;;5114213;28;20067;-63
2023/08/08 04:30:19;;;;;;;4.65;2.63;;;;;;;;;;5114643;28;20039;-63
2023/08/08 04:32:45;;;;;;;6.70;2.35;;;;;;;;;;5114614;28;20032;-63
2023/08/08 04:35:11;;;;;;;9.88;2.85;;;;;;;;;;5147311;27;20427;-63
2023/08/08 04:37:37;;;;;;;4.85;2.55;;;;;;;;;;5114626;28;20040;-63
2023/08/08 04:40:03;;;;;;;8.07;2.35;;;;;;;;;;5114565;28;20531;-63
2023/08/08 04:42:29;;;;;;;9.88;2.72;;;;;;;;;;5114073;28;20120;-63
2023/08/08 04:44:55;;;;;;;7.25;2.40;;;;;;;;;;5114523;28;20447;-63
2023/08/08 04:47:21;;;;;;;7.00;2.22;;;;;;;;;;5114023;28;20126;-63
2023/08/08 04:49:47;;;;;;;7.93;2.00;;;;;;;;;;5113775;28;20040;-63
2023/08/08 04:52:13;;;;;;;7.28;2.00;;;;;;;;;;5113737;28;20043;-63
2023/08/08 04:54:40;;;;;;;7.00;1.77;;;;;;;;;;5113826;28;20039;-63
2023/08/08 04:57:06;;;;;;;7.40;1.95;;;;;;;;;;5113772;28;20071;-63
2023/08/08 04:59:32;;;;;;;4.45;1.83;;;;;;;;;;5114035;28;20082;-63
2023/08/08 05:01:58;;;;;;;8.55;2.08;;;;;;;;;;5114245;28;20042;-63
2023/08/08 05:04:24;;;;;;;5.53;1.75;;;;;;;;;;5113503;28;20173;-63
2023/08/08 05:06:50;;;;;;;3.05;1.60;;;;;;;;;;5114042;28;20039;-63
2023/08/08 05:09:16;;;;;;;6.50;1.98;;;;;;;;;;5096430;28;20065;-63
2023/08/08 05:11:42;;;;;;;7.40;1.77;;;;;;;;;;5092967;28;20089;-63
2023/08/08 05:14:08;;;;;;;5.80;1.80;;;;;;;;;;5093497;28;20082;-63
2023/08/08 05:16:34;;;;;;;6.78;2.00;;;;;;;;;;5093583;28;20075;-63
2023/08/08 05:19:00;;;;;;;7.63;1.60;;;;;;;;;;5092992;28;20048;-63
2023/08/08 05:21:26;;;;;;;9.05;2.08;;;;;;;;;;5093355;28;20083;-63
2023/08/08 05:23:52;;;;;;;8.77;2.00;;;;;;;;;;5093203;28;20044;-63
2023/08/08 05:26:18;;;;;;;8.20;1.83;;;;;;;;;;5104502;28;20080;-63
2023/08/08 05:28:44;;;;;;;6.20;1.55;;;;;;;;;;5113597;28;20075;-63
2023/08/08 05:31:10;;;;;;;9.15;2.15;;;;;;;;;;5113705;28;20046;-63
2023/08/08 05:33:36;;;;;;;6.43;1.50;;;;;;;;;;5113211;28;20039;-63
2023/08/08 05:36:03;;;;;;;3.78;1.50;;;;;;;;;;5113445;28;20062;-63
2023/08/08 05:38:29;;;;;;;3.15;1.48;;;;;;;;;;5113396;28;20466;-63
2023/08/08 05:40:55;;;;;;;5.65;1.40;;;;;;;;;;5112954;28;20038;-63
2023/08/08 05:43:21;;;;;;;3.63;1.30;;;;;;;;;;5113160;28;20082;-63
2023/08/08 05:45:47;;;;;;;8.40;1.33;;;;;;;;;;5113246;28;20055;-63
2023/08/08 05:48:13;;;;;;;4.10;1.20;;;;;;;;;;5112725;28;20046;-63
2023/08/08 05:50:40;;;;;;;5.00;1.38;;;;;;;;;;5112706;28;20385;-63
2023/08/08 05:53:06;;;;;;;4.43;1.20;;;;;;;;;;5111904;28;20036;-62
2023/08/08 05:55:32;;;;;;;4.22;1.40;;;;;;;;;;5112438;28;20046;-63
2023/08/08 05:57:58;;;;;;;9.45;2.15;;;;;;;;;;5133333;27;20045;-62
2023/08/08 06:00:24;;;;;;;4.68;1.20;;;;;;;;;;5133149;27;20035;-63
2023/08/08 06:02:51;;;;;;;6.63;1.40;;;;;;;;;;5132561;27;20060;-63
2023/08/08 06:05:17;;;;;;;7.97;1.60;;;;;;;;;;5131842;27;20092;-63
2023/08/08 06:07:44;;;;;;;2.65;1.17;;;;;;;;;;5129993;27;20378;-63
2023/08/08 06:10:10;;;;;;;3.80;1.55;;;;;;;;;;5133052;27;20073;-63
2023/08/08 06:12:36;;;;;;;3.28;1.27;;;;;;;;;;5132340;27;20061;-63
2023/08/08 06:15:03;;;;;;;4.75;1.30;;;;;;;;;;5133050;27;20046;-64
2023/08/08 06:17:30;;;;;;;2.50;1.30;;;;;;;;;;5114991;27;20093;-64
2023/08/08 06:19:56;;;;;;;8.18;1.70;;;;;;;;;;5114923;27;20038;-63
2023/08/08 06:22:23;;;;;;;3.70;1.33;;;;;;;;;;5132928;27;20046;-63
2023/08/08 06:24:49;;;;;;;9.02;1.60;;;;;;;;;;5132487;27;20043;-63
2023/08/08 06:27:15;;;;;;;10.65;2.03;;;;;;;;;;5112830;27;20039;-63
2023/08/08 06:29:41;;;;;;;9.65;1.60;;;;;;;;;;5129113;27;20042;-64
2023/08/08 06:32:07;;;;;;;5.75;1.60;;;;;;;;;;5132506;27;20039;-64
2023/08/08 06:34:33;;;;;;;5.10;1.75;;;;;;;;;;5131814;27;20049;-63
2023/08/08 06:37:00;;;;;;;11.43;1.95;;;;;;;;;;5132571;27;20043;-62
2023/08/08 06:39:26;;;;;;;7.45;1.50;;;;;;;;;;5132660;27;20031;-62
2023/08/08 06:41:52;;;;;;;8.05;1.80;;;;;;;;;;5131918;27;20486;-62
2023/08/08 06:44:18;;;;;;;6.38;1.90;;;;;;;;;;5132441;27;20118;-62
2023/08/08 06:46:44;;;;;;;8.73;1.50;;;;;;;;;;5132513;27;20043;-63
2023/08/08 06:49:10;;;;;;;8.75;1.40;;;;;;;;;;5119245;27;20047;-63
2023/08/08 06:51:36;;;;;;;5.00;1.50;;;;;;;;;;5112176;28;20039;-64
2023/08/08 06:54:03;;;;;;;10.85;1.45;;;;;;;;;;5131638;27;20075;-63
2023/08/08 06:56:29;;;;;;;7.07;1.60;;;;;;;;;;5131413;27;20039;-63
2023/08/08 06:58:55;;;;;;;7.50;1.55;;;;;;;;;;5122543;27;20297;-63
2023/08/08 07:01:21;;;;;;;14.10;2.55;;;;;;;;;;5126932;27;20067;-63
2023/08/08 07:03:47;;;;;;;11.05;1.48;;;;;;;;;;5130022;27;20080;-63
2023/08/08 07:06:13;;;;;;;8.35;1.48;;;;;;;;;;5131488;27;20054;-63
2023/08/08 07:08:39;;;;;;;6.15;1.10;;;;;;;;;;5128266;27;20051;-63
2023/08/08 07:11:06;;;;;;;7.10;1.70;;;;;;;;;;5131674;27;20051;-63
2023/08/08 07:13:32;;;;;;;11.40;1.45;;;;;;;;;;5130641;27;20443;-64
2023/08/08 07:15:58;;;;;;;5.00;1.33;;;;;;;;;;5130609;27;20051;-63
2023/08/08 07:18:24;;;;;;;13.20;1.60;;;;;;;;;;5131021;27;20057;-63
2023/08/08 07:20:50;;;;;;;5.45;1.60;;;;;;;;;;5131454;27;20082;-63
2023/08/08 07:23:17;;;;;;;5.90;1.55;;;;;;;;;;5131303;27;20070;-63
2023/08/08 07:25:43;;;;;;;7.03;1.60;;;;;;;;;;5124502;27;20032;-63
2023/08/08 07:28:09;;;;;;;6.03;1.15;;;;;;;;;;5114837;28;20528;-63
2023/08/08 07:30:35;;;;;;;4.78;1.35;;;;;;;;;;5130075;28;20126;-63
2023/08/08 07:33:02;;;;;;;8.02;1.33;;;;;;;;;;5130653;27;20042;-62
2023/08/08 07:35:28;;;;;;;5.63;1.08;;;;;;;;;;5131129;27;20603;-62
2023/08/08 07:37:54;;;;;;;2.70;0.97;;;;;;;;;;5130705;27;20047;-62
2023/08/08 07:40:21;;;;;;;5.80;0.90;;;;;;;;;;5127549;28;20034;-62
2023/08/08 07:42:47;;;;;;;5.88;1.08;;;;;;;;;;5131004;27;20043;-61
2023/08/08 07:45:13;;;;;;;5.60;1.05;;;;;;;;;;5130651;27;20057;-63
2023/08/08 07:47:39;;;;;;;6.32;1.30;;;;;;;;;;5130880;27;20043;-62
2023/08/08 07:50:08;;;;;;;4.55;1.00;;;;;;;;;;5110867;28;20486;-63
2023/08/08 07:52:34;;;;;;;4.45;0.98;;;;;;;;;;5117122;28;20444;-62
2023/08/08 07:55:00;;;;;;;5.55;1.02;;;;;;;;;;5130802;27;20042;-62
2023/08/08 07:57:27;;;;;;;4.32;1.05;;;;;;;;;;5130916;27;20156;-63
2023/08/08 07:59:53;;;;;;;6.63;1.30;;;;;;;;;;5131099;27;20050;-64
2023/08/08 08:02:19;;;;;;;7.35;1.13;;;;;;;;;;5130835;27;20552;-62
2023/08/08 08:04:45;;;;;;;8.20;1.00;;;;;;;;;;5130988;27;20063;-62
2023/08/08 08:07:11;;;;;;;5.05;1.13;;;;;;;;;;5131385;27;20043;-62
2023/08/08 08:09:37;;;;;;;4.88;1.00;;;;;;;;;;5126065;27;20050;-63
2023/08/08 08:12:03;;;;;;;5.40;0.90;;;;;;;;;;5130589;27;20051;-62
2023/08/08 08:14:29;;;;;;;7.20;1.13;;;;;;;;;;5131052;28;20667;-62
2023/08/08 08:16:55;;;;;;;4.78;1.00;;;;;;;;;;5130331;27;20160;-63
2023/08/08 08:19:21;;;;;;;3.03;1.10;;;;;;;;;;5130684;27;20066;-62
2023/08/08 08:21:47;;;;;;;4.32;1.08;;;;;;;;;;5130677;27;20027;-62
2023/08/08 08:24:13;;;;;;;6.10;1.02;;;;;;;;;;5130454;27;20141;-62
2023/08/08 08:26:39;;;;;;;5.18;1.00;;;;;;;;;;5116378;27;20512;-62
2023/08/08 08:29:05;;;;;;;7.45;1.23;;;;;;;;;;5123983;27;20043;-63
2023/08/08 08:31:31;;;;;;;6.63;1.05;;;;;;;;;;5134240;27;20053;-63
2023/08/08 08:33:57;;;;;;;3.90;0.93;;;;;;;;;;5134468;27;20034;-63
2023/08/08 08:36:25;;;;;;;4.63;1.20;;;;;;;;;;5134470;27;20051;-64
2023/08/08 08:38:52;;;;;;;7.78;1.20;;;;;;;;;;5134425;27;20043;-63
2023/08/08 08:41:19;;;;;;;6.32;1.00;;;;;;;;;;5131552;27;20035;-64
2023/08/08 08:43:45;;;;;;;5.43;1.25;;;;;;;;;;5134267;27;20126;-63
2023/08/08 08:46:12;;;;;;;6.60;1.00;;;;;;;;;;5133817;27;20117;-63
2023/08/08 08:48:38;;;;;;;3.42;1.00;;;;;;;;;;5130738;27;20086;-63
2023/08/08 08:51:04;;;;;;;6.30;1.00;;;;;;;;;;5134165;27;20096;-63
2023/08/08 08:53:30;;;;;;;9.30;1.40;;;;;;;;;;5133507;27;20043;-63
2023/08/08 08:55:57;;;;;;;7.85;1.30;;;;;;;;;;5133701;27;20122;-63
2023/08/08 08:58:24;;;;;;;8.95;1.30;;;;;;;;;;5134109;27;20058;-63
2023/08/08 09:00:52;;;;;;;4.72;1.23;;;;;;;;;;5133715;27;20046;-63
2023/08/08 09:03:19;;;;;;;5.80;1.05;;;;;;;;;;5134108;27;20527;-63
2023/08/08 09:05:45;;;;;;;4.25;1.20;;;;;;;;;;5134015;27;20518;-63
2023/08/08 09:08:12;;;;;;;5.32;1.52;;;;;;;;;;5127069;27;20054;-63
2023/08/08 09:10:38;;;;;;;3.92;0.93;;;;;;;;;;5133935;27;20041;-61
2023/08/08 09:13:04;;;;;;;5.40;1.40;;;;;;;;;;5130550;27;20407;-62
2023/08/08 09:15:34;;;;;;;3.83;1.05;;;;;;;;;;5133623;27;20043;-62
2023/08/08 09:18:00;;;;;;;6.88;1.35;;;;;;;;;;5133506;27;20493;-62
2023/08/08 09:20:28;;;;;;;3.28;0.93;;;;;;;;;;5133526;27;20039;-61
2023/08/08 09:22:54;;;;;;;5.55;1.20;;;;;;;;;;5133278;27;20070;-62
2023/08/08 09:25:20;;;;;;;2.85;0.75;;;;;;;;;;5129967;27;20035;-62
2023/08/08 09:27:47;;;;;;;5.25;1.17;;;;;;;;;;5112955;28;20069;-62
2023/08/08 09:30:13;;;;;;;4.40;1.05;;;;;;;;;;5130692;27;20043;-63
2023/08/08 09:32:39;;;;;;;3.08;1.00;;;;;;;;;;5133101;27;20496;-63
2023/08/08 09:35:09;;;;;;;3.95;1.20;;;;;;;;;;5133494;27;20039;-62
2023/08/08 09:37:35;;;;;;;4.05;0.80;;;;;;;;;;5132715;27;20358;-63
2023/08/08 09:40:03;;;;;;;7.55;1.20;;;;;;;;;;5133078;27;20039;-63
2023/08/08 09:42:30;;;;;;;7.80;1.25;;;;;;;;;;5132993;27;20039;-62
2023/08/08 09:44:57;;;;;;;3.95;1.30;;;;;;;;;;5132764;27;20039;-63
2023/08/08 09:47:23;;;;;;;2.67;0.98;;;;;;;;;;5133111;27;20038;-62
2023/08/08 09:49:49;;;;;;;3.17;0.95;;;;;;;;;;5133000;27;20675;-62
2023/08/08 09:52:16;;;;;;;7.15;1.40;;;;;;;;;;5132657;27;20039;-63
2023/08/08 09:54:42;;;;;;;3.17;1.33;;;;;;;;;;5132670;27;20044;-62
2023/08/08 09:57:09;;;;;;;3.90;1.20;;;;;;;;;;5126587;27;20054;-62
2023/08/08 09:59:38;;;;;;;5.20;1.23;;;;;;;;;;5093423;28;20079;-62
2023/08/08 10:02:06;;;;;;;6.47;1.33;;;;;;;;;;5128508;27;20159;-63
2023/08/08 10:04:32;;;;;;;5.35;1.40;;;;;;;;;;5129929;27;20039;-62
2023/08/08 10:06:58;;;;;;;5.43;1.40;;;;;;;;;;5132178;27;20035;-61
2023/08/08 10:09:25;;;;;;;4.10;1.27;;;;;;;;;;5123964;27;20043;-62
2023/08/08 10:11:51;;;;;;;4.80;1.17;;;;;;;;;;5131410;27;20043;-62
2023/08/08 10:14:18;;;;;;;4.57;1.08;;;;;;;;;;5132304;27;20051;-63
2023/08/08 10:16:44;;;;;;;3.03;1.00;;;;;;;;;;5132129;27;20116;-63
2023/08/08 10:19:10;;;;;;;6.78;1.20;;;;;;;;;;5132466;27;20035;-62
2023/08/08 10:21:37;;;;;;;4.32;1.08;;;;;;;;;;5132197;27;20527;-62
2023/08/08 10:24:04;;;;;;;6.07;0.98;;;;;;;;;;5132155;27;20482;-63
2023/08/08 10:26:30;;;;;;;4.40;1.20;;;;;;;;;;5118894;27;20044;-63
2023/08/08 10:28:57;;;;;;;6.38;1.20;;;;;;;;;;5117804;27;20035;-62
2023/08/08 10:31:23;;;;;;;4.80;1.10;;;;;;;;;;5132221;27;20057;-62
2023/08/08 10:33:49;;;;;;;3.58;1.17;;;;;;;;;;5131779;27;20568;-62
2023/08/08 10:36:16;;;;;;;7.10;1.33;;;;;;;;;;5132152;27;20043;-63
2023/08/08 10:38:42;;;;;;;7.57;1.35;;;;;;;;;;5131738;27;20078;-62
2023/08/08 10:41:12;;;;;;;4.22;1.48;;;;;;;;;;5131822;27;20039;-62
2023/08/08 10:43:38;;;;;;;6.07;1.20;;;;;;;;;;5132150;27;20031;-62
2023/08/08 10:46:05;;;;;;;7.07;0.90;;;;;;;;;;5131367;27;20088;-62
2023/08/08 10:48:31;;;;;;;5.07;0.98;;;;;;;;;;5131737;27;20126;-62
2023/08/08 10:51:01;;;;;;;8.15;1.00;;;;;;;;;;5131650;27;20423;-62
2023/08/08 10:53:28;;;;;;;3.80;1.10;;;;;;;;;;5131391;27;20107;-62
2023/08/08 10:56:03;;;;;;;3.78;1.05;;;;;;;;;;5132055;27;20481;-62
2023/08/08 10:58:39;;;;;;;2.45;1.05;;;;;;;;;;5113299;27;20496;-64
2023/08/08 11:01:09;;;;;;;8.27;1.02;;;;;;;;;;5116762;27;20043;-63
2023/08/08 11:03:39;;;;;;;3.72;1.05;;;;;;;;;;5131881;27;20562;-64
2023/08/08 11:06:09;;;;;;;3.92;1.20;;;;;;;;;;5131614;27;20035;-64
2023/08/08 11:08:37;;;;;;;4.28;1.00;;;;;;;;;;5121288;27;20039;-64
2023/08/08 11:11:04;;;;;;;6.43;1.40;;;;;;;;;;5131607;27;20046;-63
2023/08/08 11:13:30;;;;;;;3.92;0.95;;;;;;;;;;5128083;27;20059;-64
2023/08/08 11:15:56;;;;;;;4.15;1.02;;;;;;;;;;5131562;27;20532;-63
2023/08/08 11:18:22;;;;;;;4.50;1.15;;;;;;;;;;5131383;27;20039;-63
2023/08/08 11:20:49;;;;;;;7.00;0.93;;;;;;;;;;5130714;27;20046;-63
2023/08/08 11:23:16;;;;;;;3.22;0.70;;;;;;;;;;5131158;27;20039;-62
2023/08/08 11:25:43;;;;;;;2.42;0.98;;;;;;;;;;5124685;27;20043;-62
2023/08/08 11:28:10;;;;;;;3.22;0.80;;;;;;;;;;5111116;28;20062;-62
2023/08/08 11:30:40;;;;;;;3.55;1.13;;;;;;;;;;5128125;28;20092;-63
2023/08/08 11:33:06;;;;;;;5.90;0.90;;;;;;;;;;5130387;27;20039;-63
2023/08/08 11:35:36;;;;;;;6.03;1.30;;;;;;;;;;5131520;27;20035;-62
2023/08/08 11:38:04;;;;;;;3.33;1.13;;;;;;;;;;5127844;27;20037;-62
2023/08/08 11:40:30;;;;;;;5.88;1.42;;;;;;;;;;5130776;27;20123;-64
2023/08/08 11:42:57;;;;;;;6.72;1.42;;;;;;;;;;5131013;27;20039;-64
2023/08/08 11:45:24;;;;;;;5.85;1.27;;;;;;;;;;5130173;27;20035;-63
2023/08/08 11:47:51;;;;;;;4.05;1.05;;;;;;;;;;5131518;27;20072;-62
2023/08/08 11:50:19;;;;;;;6.35;1.20;;;;;;;;;;5130848;27;20484;-63
2023/08/08 11:52:46;;;;;;;4.47;1.50;;;;;;;;;;5130508;27;20043;-63
2023/08/08 11:55:13;;;;;;;6.47;1.50;;;;;;;;;;5131281;27;20061;-63
2023/08/08 11:57:39;;;;;;;9.18;1.38;;;;;;;;;;5128297;27;20050;-62
2023/08/08 12:00:07;;;;;;;3.50;1.08;;;;;;;;;;5130980;27;20113;-62
2023/08/08 12:02:33;;;;;;;4.82;1.10;;;;;;;;;;5131126;27;20047;-61
2023/08/08 12:05:11;;;;;;;3.97;1.02;;;;;;;;;;5134882;27;20046;-62
2023/08/08 12:07:37;;;;;;;4.13;1.13;;;;;;;;;;5131466;27;20040;-62
2023/08/08 12:10:05;;;;;;;4.70;1.10;;;;;;;;;;5126267;27;20039;-63
2023/08/08 12:12:37;;;;;;;4.47;1.23;;;;;;;;;;5134814;27;20047;-64
2023/08/08 12:15:03;;;;;;;;;;;;;;;;;;5135140;27;20106;-62
2023/08/08 12:17:29;;;;;;;4.75;0.80;;;;;;;;;;5135011;27;19926;-66
2023/08/08 12:19:59;;;;;;;7.28;1.38;;;;;;;;;;5134927;27;20047;-66
2023/08/08 12:22:25;;;;;;;3.15;1.02;;;;;;;;;;5134453;27;20059;-66
2023/08/08 12:24:52;;;;;;;3.22;0.90;;;;;;;;;;5134397;27;20050;-66
2023/08/08 12:27:18;;;;;;;5.45;0.80;;;;;;;;;;5114563;27;20408;-66
2023/08/08 12:29:44;;;;;;;6.90;1.15;;;;;;;;;;5122412;27;20096;-66
2023/08/08 12:32:10;;;;;;;5.10;0.95;;;;;;;;;;5134378;27;20126;-66
2023/08/08 12:34:36;;;;;;;3.83;0.90;;;;;;;;;;5134122;27;20132;-66
2023/08/08 12:37:02;;;;;;;5.13;0.88;;;;;;;;;;5134135;27;20043;-66
2023/08/08 12:39:29;;;;;;;4.10;0.82;;;;;;;;;;5134274;27;20039;-66
2023/08/08 12:41:56;;;;;;;3.15;1.20;;;;;;;;;;5134304;27;20031;-66
2023/08/08 12:44:22;;;;;;;6.97;1.20;;;;;;;;;;5134159;27;20042;-66
2023/08/08 12:46:48;;;;;;;5.90;1.25;;;;;;;;;;5134090;27;20038;-67
2023/08/08 12:49:14;;;;;;;4.00;0.90;;;;;;;;;;5134316;27;20469;-67
2023/08/08 12:51:40;;;;;;;4.00;1.30;;;;;;;;;;5133699;27;20473;-67
2023/08/08 12:54:07;;;;;;;3.40;0.85;;;;;;;;;;5131267;27;20128;-67
2023/08/08 12:56:33;;;;;;;2.28;0.70;;;;;;;;;;5134111;27;20478;-66
2023/08/08 12:58:59;;;;;;;3.35;0.88;;;;;;;;;;5129509;27;20122;-66
2023/08/08 13:01:25;;;;;;;4.28;0.80;;;;;;;;;;5130281;27;20058;-66
2023/08/08 13:03:51;;;;;;;4.28;0.70;;;;;;;;;;5133969;27;20051;-66
2023/08/08 13:06:17;;;;;;;3.55;0.90;;;;;;;;;;5132879;27;20168;-65
2023/08/08 13:08:43;;;;;;;4.65;0.77;;;;;;;;;;5121029;27;20123;-65
2023/08/08 13:11:09;;;;;;;4.53;0.73;;;;;;;;;;5132939;27;20054;-65
2023/08/08 13:13:35;;;;;;;2.35;0.70;;;;;;;;;;5132673;27;20047;-66
2023/08/08 13:16:03;;;;;;;2.63;0.65;;;;;;;;;;5133626;27;20455;-67
2023/08/08 13:18:29;;;;;;;3.75;0.80;;;;;;;;;;5127354;27;20046;-67
2023/08/08 13:20:55;;;;;;;5.03;0.80;;;;;;;;;;5113463;28;20047;-67
2023/08/08 13:23:21;;;;;;;4.28;0.75;;;;;;;;;;5133202;27;20659;-67
2023/08/08 13:25:49;;;;;;;2.78;0.77;;;;;;;;;;5130438;27;20046;-67
2023/08/08 13:28:15;;;;;;;3.28;0.95;;;;;;;;;;5132708;27;20043;-66
2023/08/08 13:30:43;;;;;;;4.30;0.88;;;;;;;;;;5132616;27;20043;-66
2023/08/08 13:33:09;;;;;;;2.85;1.33;;;;;;;;;;5132857;27;20118;-67
2023/08/08 13:35:35;;;;;;;3.03;0.90;;;;;;;;;;5132596;27;20395;-66
2023/08/08 13:38:01;;;;;;;2.30;0.77;;;;;;;;;;5132214;27;20050;-67
2023/08/08 13:40:27;;;;;;;3.28;0.90;;;;;;;;;;5120506;27;20082;-66
2023/08/08 13:42:53;;;;;;;2.20;0.65;;;;;;;;;;5128452;27;20502;-66
2023/08/08 13:45:22;;;;;;;3.38;0.68;;;;;;;;;;5132643;27;20072;-66
2023/08/08 13:47:49;;;;;;;4.82;0.88;;;;;;;;;;5132730;27;20474;-66
2023/08/08 13:50:15;;;;;;;2.30;0.80;;;;;;;;;;5131809;27;20043;-66
2023/08/08 13:52:41;;;;;;;2.92;0.57;;;;;;;;;;5132555;27;20811;-66
2023/08/08 13:55:08;;;;;;;4.50;0.90;;;;;;;;;;5132533;27;20469;-67
2023/08/08 13:57:34;;;;;;;2.72;0.63;;;;;;;;;;5131119;27;20106;-67
2023/08/08 14:00:00;;;;;;;2.70;0.80;;;;;;;;;;5132676;27;20613;-67
2023/08/08 14:02:26;;;;;;;3.65;0.82;;;;;;;;;;5131969;27;20027;-67
2023/08/08 14:04:53;;;;;;;5.38;1.30;;;;;;;;;;5132132;27;20039;-66
2023/08/08 14:07:21;;;;;;;3.42;1.08;;;;;;;;;;5131248;27;20031;-66
2023/08/08 14:09:47;;;;;;;3.88;1.08;;;;;;;;;;5112835;27;20545;-67
2023/08/08 14:12:13;;;;;;;6.53;1.30;;;;;;;;;;5130444;27;20063;-66
2023/08/08 14:14:39;;;;;;;5.00;1.00;;;;;;;;;;5131704;27;20096;-65
2023/08/08 14:17:05;;;;;;;4.30;1.05;;;;;;;;;;5131921;27;20104;-67
2023/08/08 14:19:31;;;;;;;3.72;1.00;;;;;;;;;;5111273;28;20075;-65
2023/08/08 14:21:57;;;;;;;3.17;1.17;;;;;;;;;;5114621;27;20032;-67
2023/08/08 14:24:24;;;;;;;2.60;1.35;;;;;;;;;;5111633;28;20048;-67
2023/08/08 14:26:50;;;;;;;4.30;1.00;;;;;;;;;;5109870;28;20051;-65
2023/08/08 14:29:17;;;;;;;5.07;1.20;;;;;;;;;;5111958;28;20039;-65
2023/08/08 14:31:43;;;;;;;3.50;1.10;;;;;;;;;;5111778;28;20039;-65
2023/08/08 14:34:09;;;;;;;3.75;1.38;;;;;;;;;;5110973;28;20122;-65
2023/08/08 14:36:35;;;;;;;4.55;1.10;;;;;;;;;;5111739;28;20538;-65
2023/08/08 14:39:01;;;;;;;6.40;1.00;;;;;;;;;;5111785;28;20049;-65